sensor_id;sensor_type;location;lat;lon;timestamp;P1;durP1;ratioP1;P2;durP2;ratioP2
19828;SDS011;10075;50.924;4.396;2022-10-16T00:01:04;2.13;;;0.88;;
19828;SDS011;10075;50.924;4.396;2022-10-16T00:03:32;1.33;;;0.80;;
19828;SDS011;10075;50.924;4.396;2022-10-16T00:05:59;1.77;;;0.80;;
19828;SDS011;10075;50.924;4.396;2022-10-16T00:08:27;1.40;;;0.80;;
19828;SDS011;10075;50.924;4.396;2022-10-16T00:10:59;1.67;;;0.85;;
19828;SDS011;10075;50.924;4.396;2022-10-16T00:13:27;3.10;;;0.80;;
19828;SDS011;10075;50.924;4.396;2022-10-16T00:15:54;1.92;;;0.70;;
19828;SDS011;10075;50.924;4.396;2022-10-16T00:18:22;3.47;;;0.80;;
19828;SDS011;10075;50.924;4.396;2022-10-16T00:20:50;1.40;;;0.63;;
19828;SDS011;10075;50.924;4.396;2022-10-16T00:23:17;1.73;;;0.85;;
19828;SDS011;10075;50.924;4.396;2022-10-16T00:25:44;3.60;;;1.20;;
19828;SDS011;10075;50.924;4.396;2022-10-16T00:28:21;1.77;;;0.77;;
19828;SDS011;10075;50.924;4.396;2022-10-16T00:30:48;2.17;;;1.30;;
19828;SDS011;10075;50.924;4.396;2022-10-16T00:33:15;3.40;;;1.00;;
19828;SDS011;10075;50.924;4.396;2022-10-16T00:35:42;2.67;;;0.80;;
19828;SDS011;10075;50.924;4.396;2022-10-16T00:38:09;1.73;;;0.80;;
19828;SDS011;10075;50.924;4.396;2022-10-16T00:40:36;4.50;;;0.75;;
19828;SDS011;10075;50.924;4.396;2022-10-16T00:43:07;5.45;;;1.00;;
19828;SDS011;10075;50.924;4.396;2022-10-16T00:45:40;1.88;;;0.80;;
19828;SDS011;10075;50.924;4.396;2022-10-16T00:48:09;1.30;;;0.70;;
19828;SDS011;10075;50.924;4.396;2022-10-16T00:50:39;1.20;;;0.75;;
19828;SDS011;10075;50.924;4.396;2022-10-16T00:53:08;1.48;;;0.93;;
19828;SDS011;10075;50.924;4.396;2022-10-16T00:55:36;4.95;;;0.95;;
19828;SDS011;10075;50.924;4.396;2022-10-16T00:58:03;2.75;;;0.70;;
19828;SDS011;10075;50.924;4.396;2022-10-16T01:00:30;1.70;;;0.93;;
19828;SDS011;10075;50.924;4.396;2022-10-16T01:02:59;2.10;;;1.00;;
19828;SDS011;10075;50.924;4.396;2022-10-16T01:05:29;2.33;;;0.90;;
19828;SDS011;10075;50.924;4.396;2022-10-16T01:08:02;2.13;;;0.90;;
19828;SDS011;10075;50.924;4.396;2022-10-16T01:10:39;2.83;;;0.98;;
19828;SDS011;10075;50.924;4.396;2022-10-16T01:13:13;2.70;;;0.77;;
19828;SDS011;10075;50.924;4.396;2022-10-16T01:15:46;2.45;;;1.00;;
19828;SDS011;10075;50.924;4.396;2022-10-16T01:18:18;1.27;;;0.90;;
19828;SDS011;10075;50.924;4.396;2022-10-16T01:20:51;1.63;;;0.90;;
19828;SDS011;10075;50.924;4.396;2022-10-16T01:23:32;1.75;;;0.90;;
19828;SDS011;10075;50.924;4.396;2022-10-16T01:29:12;1.77;;;1.10;;
19828;SDS011;10075;50.924;4.396;2022-10-16T01:31:47;2.45;;;1.08;;
19828;SDS011;10075;50.924;4.396;2022-10-16T01:34:22;5.10;;;0.98;;
19828;SDS011;10075;50.924;4.396;2022-10-16T01:36:58;2.13;;;0.93;;
19828;SDS011;10075;50.924;4.396;2022-10-16T01:39:31;4.18;;;1.20;;
19828;SDS011;10075;50.924;4.396;2022-10-16T01:42:03;2.72;;;1.20;;
19828;SDS011;10075;50.924;4.396;2022-10-16T01:44:35;2.25;;;1.00;;
19828;SDS011;10075;50.924;4.396;2022-10-16T01:47:04;1.75;;;0.90;;
19828;SDS011;10075;50.924;4.396;2022-10-16T01:49:33;2.42;;;1.35;;
19828;SDS011;10075;50.924;4.396;2022-10-16T01:52:04;2.15;;;1.10;;
19828;SDS011;10075;50.924;4.396;2022-10-16T01:54:37;2.47;;;1.05;;
19828;SDS011;10075;50.924;4.396;2022-10-16T01:57:08;1.33;;;1.00;;
19828;SDS011;10075;50.924;4.396;2022-10-16T01:59:41;3.88;;;1.20;;
19828;SDS011;10075;50.924;4.396;2022-10-16T02:02:12;3.83;;;1.42;;
19828;SDS011;10075;50.924;4.396;2022-10-16T02:04:42;3.75;;;1.02;;
19828;SDS011;10075;50.924;4.396;2022-10-16T02:07:11;3.90;;;1.40;;
19828;SDS011;10075;50.924;4.396;2022-10-16T02:09:42;2.88;;;1.30;;
19828;SDS011;10075;50.924;4.396;2022-10-16T02:12:10;5.35;;;1.23;;
19828;SDS011;10075;50.924;4.396;2022-10-16T02:14:43;4.43;;;1.35;;
19828;SDS011;10075;50.924;4.396;2022-10-16T02:17:11;9.13;;;1.70;;
19828;SDS011;10075;50.924;4.396;2022-10-16T02:19:40;2.35;;;1.42;;
19828;SDS011;10075;50.924;4.396;2022-10-16T02:22:10;2.25;;;1.20;;
19828;SDS011;10075;50.924;4.396;2022-10-16T02:24:46;2.10;;;1.50;;
19828;SDS011;10075;50.924;4.396;2022-10-16T02:27:20;4.00;;;1.30;;
19828;SDS011;10075;50.924;4.396;2022-10-16T02:29:53;4.15;;;1.30;;
19828;SDS011;10075;50.924;4.396;2022-10-16T02:32:24;3.45;;;1.35;;
19828;SDS011;10075;50.924;4.396;2022-10-16T02:34:56;5.38;;;1.48;;
19828;SDS011;10075;50.924;4.396;2022-10-16T02:37:25;2.83;;;1.40;;
19828;SDS011;10075;50.924;4.396;2022-10-16T02:39:55;5.78;;;1.55;;
19828;SDS011;10075;50.924;4.396;2022-10-16T02:42:27;3.20;;;1.20;;
19828;SDS011;10075;50.924;4.396;2022-10-16T02:44:57;3.23;;;1.37;;
19828;SDS011;10075;50.924;4.396;2022-10-16T02:47:24;4.00;;;1.55;;
19828;SDS011;10075;50.924;4.396;2022-10-16T02:49:51;7.10;;;1.30;;
19828;SDS011;10075;50.924;4.396;2022-10-16T02:52:18;4.13;;;1.40;;
19828;SDS011;10075;50.924;4.396;2022-10-16T02:54:45;2.08;;;1.20;;
19828;SDS011;10075;50.924;4.396;2022-10-16T02:57:12;4.10;;;1.35;;
19828;SDS011;10075;50.924;4.396;2022-10-16T02:59:39;3.42;;;1.60;;
19828;SDS011;10075;50.924;4.396;2022-10-16T03:02:07;2.67;;;1.40;;
19828;SDS011;10075;50.924;4.396;2022-10-16T03:04:34;3.90;;;1.50;;
19828;SDS011;10075;50.924;4.396;2022-10-16T03:07:02;2.80;;;1.38;;
19828;SDS011;10075;50.924;4.396;2022-10-16T03:09:29;2.95;;;1.75;;
19828;SDS011;10075;50.924;4.396;2022-10-16T03:11:56;4.45;;;1.63;;
19828;SDS011;10075;50.924;4.396;2022-10-16T03:14:23;6.53;;;1.50;;
19828;SDS011;10075;50.924;4.396;2022-10-16T03:16:50;2.35;;;1.50;;
19828;SDS011;10075;50.924;4.396;2022-10-16T03:19:21;3.42;;;1.40;;
19828;SDS011;10075;50.924;4.396;2022-10-16T03:21:48;2.47;;;1.30;;
19828;SDS011;10075;50.924;4.396;2022-10-16T03:24:15;3.15;;;1.60;;
19828;SDS011;10075;50.924;4.396;2022-10-16T03:26:42;4.40;;;1.40;;
19828;SDS011;10075;50.924;4.396;2022-10-16T03:29:09;1.92;;;1.48;;
19828;SDS011;10075;50.924;4.396;2022-10-16T03:31:36;3.25;;;1.40;;
19828;SDS011;10075;50.924;4.396;2022-10-16T03:34:03;3.17;;;1.70;;
19828;SDS011;10075;50.924;4.396;2022-10-16T03:36:31;4.90;;;2.05;;
19828;SDS011;10075;50.924;4.396;2022-10-16T03:38:58;5.15;;;1.92;;
19828;SDS011;10075;50.924;4.396;2022-10-16T03:41:27;5.82;;;1.73;;
19828;SDS011;10075;50.924;4.396;2022-10-16T03:43:54;2.42;;;1.50;;
19828;SDS011;10075;50.924;4.396;2022-10-16T03:46:21;5.47;;;1.70;;
19828;SDS011;10075;50.924;4.396;2022-10-16T03:48:48;6.25;;;1.80;;
19828;SDS011;10075;50.924;4.396;2022-10-16T03:51:15;5.00;;;1.98;;
19828;SDS011;10075;50.924;4.396;2022-10-16T03:53:44;4.45;;;2.00;;
19828;SDS011;10075;50.924;4.396;2022-10-16T03:56:11;5.20;;;1.83;;
19828;SDS011;10075;50.924;4.396;2022-10-16T03:58:37;4.93;;;1.77;;
19828;SDS011;10075;50.924;4.396;2022-10-16T04:01:04;3.13;;;1.70;;
19828;SDS011;10075;50.924;4.396;2022-10-16T04:03:31;4.68;;;1.90;;
19828;SDS011;10075;50.924;4.396;2022-10-16T04:05:58;4.40;;;1.70;;
19828;SDS011;10075;50.924;4.396;2022-10-16T04:08:25;4.47;;;1.38;;
19828;SDS011;10075;50.924;4.396;2022-10-16T04:10:54;4.45;;;1.80;;
19828;SDS011;10075;50.924;4.396;2022-10-16T04:13:21;5.78;;;1.60;;
19828;SDS011;10075;50.924;4.396;2022-10-16T04:15:48;3.13;;;1.88;;
19828;SDS011;10075;50.924;4.396;2022-10-16T04:18:15;2.58;;;1.58;;
19828;SDS011;10075;50.924;4.396;2022-10-16T04:20:41;5.78;;;1.67;;
19828;SDS011;10075;50.924;4.396;2022-10-16T04:23:09;6.68;;;2.58;;
19828;SDS011;10075;50.924;4.396;2022-10-16T04:25:35;6.18;;;1.88;;
19828;SDS011;10075;50.924;4.396;2022-10-16T04:28:04;3.85;;;1.42;;
19828;SDS011;10075;50.924;4.396;2022-10-16T04:30:31;5.30;;;2.08;;
19828;SDS011;10075;50.924;4.396;2022-10-16T04:32:58;3.17;;;1.70;;
19828;SDS011;10075;50.924;4.396;2022-10-16T04:35:25;4.85;;;1.60;;
19828;SDS011;10075;50.924;4.396;2022-10-16T04:37:52;5.78;;;1.80;;
19828;SDS011;10075;50.924;4.396;2022-10-16T04:40:19;3.67;;;1.42;;
19828;SDS011;10075;50.924;4.396;2022-10-16T04:42:46;2.28;;;1.63;;
19828;SDS011;10075;50.924;4.396;2022-10-16T04:45:15;3.50;;;1.65;;
19828;SDS011;10075;50.924;4.396;2022-10-16T04:47:41;4.45;;;2.10;;
19828;SDS011;10075;50.924;4.396;2022-10-16T04:50:08;2.97;;;1.70;;
19828;SDS011;10075;50.924;4.396;2022-10-16T04:52:35;3.55;;;1.45;;
19828;SDS011;10075;50.924;4.396;2022-10-16T04:55:03;2.92;;;1.60;;
19828;SDS011;10075;50.924;4.396;2022-10-16T04:57:30;4.05;;;1.90;;
19828;SDS011;10075;50.924;4.396;2022-10-16T04:59:58;3.92;;;1.73;;
19828;SDS011;10075;50.924;4.396;2022-10-16T05:02:26;4.78;;;1.70;;
19828;SDS011;10075;50.924;4.396;2022-10-16T05:04:53;5.65;;;1.77;;
19828;SDS011;10075;50.924;4.396;2022-10-16T05:07:20;5.25;;;1.73;;
19828;SDS011;10075;50.924;4.396;2022-10-16T05:09:47;6.18;;;2.13;;
19828;SDS011;10075;50.924;4.396;2022-10-16T05:12:14;4.07;;;2.38;;
19828;SDS011;10075;50.924;4.396;2022-10-16T05:14:41;4.38;;;2.03;;
19828;SDS011;10075;50.924;4.396;2022-10-16T05:17:08;4.80;;;1.95;;
19828;SDS011;10075;50.924;4.396;2022-10-16T05:19:36;3.10;;;1.85;;
19828;SDS011;10075;50.924;4.396;2022-10-16T05:22:03;4.20;;;1.75;;
19828;SDS011;10075;50.924;4.396;2022-10-16T05:24:30;3.45;;;1.60;;
19828;SDS011;10075;50.924;4.396;2022-10-16T05:26:57;6.33;;;2.10;;
19828;SDS011;10075;50.924;4.396;2022-10-16T05:29:24;7.55;;;2.28;;
19828;SDS011;10075;50.924;4.396;2022-10-16T05:31:51;4.85;;;2.10;;
19828;SDS011;10075;50.924;4.396;2022-10-16T05:34:19;4.45;;;2.28;;
19828;SDS011;10075;50.924;4.396;2022-10-16T05:36:47;4.97;;;1.92;;
19828;SDS011;10075;50.924;4.396;2022-10-16T05:39:14;2.47;;;1.83;;
19828;SDS011;10075;50.924;4.396;2022-10-16T05:41:42;8.70;;;2.60;;
19828;SDS011;10075;50.924;4.396;2022-10-16T05:44:09;5.30;;;2.67;;
19828;SDS011;10075;50.924;4.396;2022-10-16T05:46:36;4.60;;;2.33;;
19828;SDS011;10075;50.924;4.396;2022-10-16T05:49:03;4.35;;;2.38;;
19828;SDS011;10075;50.924;4.396;2022-10-16T05:51:30;5.43;;;2.28;;
19828;SDS011;10075;50.924;4.396;2022-10-16T05:53:58;4.38;;;2.13;;
19828;SDS011;10075;50.924;4.396;2022-10-16T05:56:25;7.13;;;2.85;;
19828;SDS011;10075;50.924;4.396;2022-10-16T05:58:52;7.97;;;2.40;;
19828;SDS011;10075;50.924;4.396;2022-10-16T06:01:19;5.40;;;2.25;;
19828;SDS011;10075;50.924;4.396;2022-10-16T06:03:49;7.47;;;2.80;;
19828;SDS011;10075;50.924;4.396;2022-10-16T06:06:17;5.03;;;2.53;;
19828;SDS011;10075;50.924;4.396;2022-10-16T06:08:45;7.60;;;2.63;;
19828;SDS011;10075;50.924;4.396;2022-10-16T06:11:16;3.30;;;2.55;;
19828;SDS011;10075;50.924;4.396;2022-10-16T06:13:48;5.72;;;2.50;;
19828;SDS011;10075;50.924;4.396;2022-10-16T06:16:15;4.47;;;2.33;;
19828;SDS011;10075;50.924;4.396;2022-10-16T06:18:42;4.30;;;2.10;;
19828;SDS011;10075;50.924;4.396;2022-10-16T06:21:10;5.00;;;2.60;;
19828;SDS011;10075;50.924;4.396;2022-10-16T06:23:38;3.60;;;2.10;;
19828;SDS011;10075;50.924;4.396;2022-10-16T06:26:05;3.50;;;2.00;;
19828;SDS011;10075;50.924;4.396;2022-10-16T06:28:34;5.10;;;2.10;;
19828;SDS011;10075;50.924;4.396;2022-10-16T06:31:02;7.10;;;2.30;;
19828;SDS011;10075;50.924;4.396;2022-10-16T06:33:31;4.55;;;2.17;;
19828;SDS011;10075;50.924;4.396;2022-10-16T06:36:01;3.22;;;2.13;;
19828;SDS011;10075;50.924;4.396;2022-10-16T06:38:29;6.40;;;2.50;;
19828;SDS011;10075;50.924;4.396;2022-10-16T06:40:56;4.55;;;2.13;;
19828;SDS011;10075;50.924;4.396;2022-10-16T06:43:24;4.97;;;2.28;;
19828;SDS011;10075;50.924;4.396;2022-10-16T06:45:53;3.90;;;2.20;;
19828;SDS011;10075;50.924;4.396;2022-10-16T06:48:21;9.35;;;2.10;;
19828;SDS011;10075;50.924;4.396;2022-10-16T06:50:55;3.13;;;2.05;;
19828;SDS011;10075;50.924;4.396;2022-10-16T06:53:23;7.38;;;2.20;;
19828;SDS011;10075;50.924;4.396;2022-10-16T06:55:51;5.45;;;2.00;;
19828;SDS011;10075;50.924;4.396;2022-10-16T06:58:17;6.93;;;2.08;;
19828;SDS011;10075;50.924;4.396;2022-10-16T07:00:44;3.67;;;1.60;;
19828;SDS011;10075;50.924;4.396;2022-10-16T07:03:13;4.60;;;1.92;;
19828;SDS011;10075;50.924;4.396;2022-10-16T07:05:40;8.90;;;2.17;;
19828;SDS011;10075;50.924;4.396;2022-10-16T07:08:08;4.00;;;2.08;;
19828;SDS011;10075;50.924;4.396;2022-10-16T07:10:35;5.35;;;2.13;;
19828;SDS011;10075;50.924;4.396;2022-10-16T07:13:02;5.45;;;1.83;;
19828;SDS011;10075;50.924;4.396;2022-10-16T07:15:29;7.32;;;2.20;;
19828;SDS011;10075;50.924;4.396;2022-10-16T07:17:56;5.28;;;2.13;;
19828;SDS011;10075;50.924;4.396;2022-10-16T07:20:25;4.20;;;1.95;;
19828;SDS011;10075;50.924;4.396;2022-10-16T07:22:52;6.28;;;2.40;;
19828;SDS011;10075;50.924;4.396;2022-10-16T07:25:19;6.50;;;1.88;;
19828;SDS011;10075;50.924;4.396;2022-10-16T07:27:46;4.22;;;2.08;;
19828;SDS011;10075;50.924;4.396;2022-10-16T07:30:13;3.55;;;1.70;;
19828;SDS011;10075;50.924;4.396;2022-10-16T07:32:40;5.82;;;2.05;;
19828;SDS011;10075;50.924;4.396;2022-10-16T07:35:07;4.38;;;2.28;;
19828;SDS011;10075;50.924;4.396;2022-10-16T07:37:35;4.97;;;2.10;;
19828;SDS011;10075;50.924;4.396;2022-10-16T07:40:02;4.28;;;2.03;;
19828;SDS011;10075;50.924;4.396;2022-10-16T07:42:30;6.85;;;2.30;;
19828;SDS011;10075;50.924;4.396;2022-10-16T07:44:57;6.95;;;1.95;;
19828;SDS011;10075;50.924;4.396;2022-10-16T07:47:24;3.28;;;1.80;;
19828;SDS011;10075;50.924;4.396;2022-10-16T07:49:51;4.43;;;2.33;;
19828;SDS011;10075;50.924;4.396;2022-10-16T07:52:18;6.03;;;2.05;;
19828;SDS011;10075;50.924;4.396;2022-10-16T07:54:46;5.45;;;2.00;;
19828;SDS011;10075;50.924;4.396;2022-10-16T07:57:13;4.93;;;2.15;;
19828;SDS011;10075;50.924;4.396;2022-10-16T07:59:44;3.13;;;1.98;;
19828;SDS011;10075;50.924;4.396;2022-10-16T08:02:11;4.13;;;2.10;;
19828;SDS011;10075;50.924;4.396;2022-10-16T08:04:38;5.32;;;2.03;;
19828;SDS011;10075;50.924;4.396;2022-10-16T08:07:06;3.65;;;1.70;;
19828;SDS011;10075;50.924;4.396;2022-10-16T08:09:34;5.75;;;1.75;;
19828;SDS011;10075;50.924;4.396;2022-10-16T08:12:02;4.57;;;1.70;;
19828;SDS011;10075;50.924;4.396;2022-10-16T08:14:30;3.60;;;1.80;;
19828;SDS011;10075;50.924;4.396;2022-10-16T08:16:57;3.45;;;1.60;;
19828;SDS011;10075;50.924;4.396;2022-10-16T08:19:24;6.20;;;1.90;;
19828;SDS011;10075;50.924;4.396;2022-10-16T08:21:51;12.15;;;2.10;;
19828;SDS011;10075;50.924;4.396;2022-10-16T08:24:18;4.32;;;1.80;;
19828;SDS011;10075;50.924;4.396;2022-10-16T08:26:45;3.35;;;1.77;;
19828;SDS011;10075;50.924;4.396;2022-10-16T08:29:14;6.65;;;1.70;;
19828;SDS011;10075;50.924;4.396;2022-10-16T08:31:41;5.32;;;1.60;;
19828;SDS011;10075;50.924;4.396;2022-10-16T08:34:08;4.97;;;1.52;;
19828;SDS011;10075;50.924;4.396;2022-10-16T08:36:35;5.78;;;1.67;;
19828;SDS011;10075;50.924;4.396;2022-10-16T08:39:02;9.27;;;1.90;;
19828;SDS011;10075;50.924;4.396;2022-10-16T08:44:43;5.20;;;1.70;;
19828;SDS011;10075;50.924;4.396;2022-10-16T08:47:44;4.82;;;1.60;;
19828;SDS011;10075;50.924;4.396;2022-10-16T08:50:17;5.13;;;1.55;;
19828;SDS011;10075;50.924;4.396;2022-10-16T08:52:49;7.38;;;1.63;;
19828;SDS011;10075;50.924;4.396;2022-10-16T08:55:28;5.68;;;1.90;;
19828;SDS011;10075;50.924;4.396;2022-10-16T08:57:58;4.70;;;1.67;;
19828;SDS011;10075;50.924;4.396;2022-10-16T09:00:27;5.85;;;1.42;;
19828;SDS011;10075;50.924;4.396;2022-10-16T09:02:57;2.30;;;1.33;;
19828;SDS011;10075;50.924;4.396;2022-10-16T09:05:52;4.47;;;1.60;;
19828;SDS011;10075;50.924;4.396;2022-10-16T09:08:29;4.63;;;1.42;;
19828;SDS011;10075;50.924;4.396;2022-10-16T09:11:04;7.50;;;1.67;;
19828;SDS011;10075;50.924;4.396;2022-10-16T09:13:36;5.57;;;1.52;;
19828;SDS011;10075;50.924;4.396;2022-10-16T09:16:18;5.30;;;1.75;;
19828;SDS011;10075;50.924;4.396;2022-10-16T09:18:52;3.25;;;1.52;;
19828;SDS011;10075;50.924;4.396;2022-10-16T09:21:28;9.05;;;1.83;;
19828;SDS011;10075;50.924;4.396;2022-10-16T09:23:57;9.10;;;1.55;;
19828;SDS011;10075;50.924;4.396;2022-10-16T09:26:30;7.72;;;1.60;;
19828;SDS011;10075;50.924;4.396;2022-10-16T09:28:57;4.53;;;1.58;;
19828;SDS011;10075;50.924;4.396;2022-10-16T09:31:26;6.50;;;1.27;;
19828;SDS011;10075;50.924;4.396;2022-10-16T09:33:55;7.28;;;1.30;;
19828;SDS011;10075;50.924;4.396;2022-10-16T09:36:26;5.28;;;1.52;;
19828;SDS011;10075;50.924;4.396;2022-10-16T09:39:01;5.13;;;1.30;;
19828;SDS011;10075;50.924;4.396;2022-10-16T09:41:30;8.13;;;1.30;;
19828;SDS011;10075;50.924;4.396;2022-10-16T09:44:00;3.60;;;1.10;;
19828;SDS011;10075;50.924;4.396;2022-10-16T09:46:30;4.10;;;1.33;;
19828;SDS011;10075;50.924;4.396;2022-10-16T09:48:58;8.05;;;1.48;;
19828;SDS011;10075;50.924;4.396;2022-10-16T09:51:27;4.70;;;1.20;;
19828;SDS011;10075;50.924;4.396;2022-10-16T09:53:57;5.68;;;1.40;;
19828;SDS011;10075;50.924;4.396;2022-10-16T09:56:26;4.18;;;1.05;;
19828;SDS011;10075;50.924;4.396;2022-10-16T09:58:54;5.80;;;1.40;;
19828;SDS011;10075;50.924;4.396;2022-10-16T10:01:24;4.00;;;1.20;;
19828;SDS011;10075;50.924;4.396;2022-10-16T10:03:57;6.05;;;1.55;;
19828;SDS011;10075;50.924;4.396;2022-10-16T10:06:28;5.13;;;1.45;;
19828;SDS011;10075;50.924;4.396;2022-10-16T10:08:59;6.97;;;1.33;;
19828;SDS011;10075;50.924;4.396;2022-10-16T10:11:38;4.35;;;1.30;;
19828;SDS011;10075;50.924;4.396;2022-10-16T10:14:20;5.95;;;1.13;;
19828;SDS011;10075;50.924;4.396;2022-10-16T10:16:49;4.97;;;1.10;;
19828;SDS011;10075;50.924;4.396;2022-10-16T10:19:19;4.38;;;1.13;;
19828;SDS011;10075;50.924;4.396;2022-10-16T10:21:48;5.53;;;1.33;;
19828;SDS011;10075;50.924;4.396;2022-10-16T10:24:17;5.47;;;1.33;;
19828;SDS011;10075;50.924;4.396;2022-10-16T10:26:47;5.57;;;1.15;;
19828;SDS011;10075;50.924;4.396;2022-10-16T10:29:28;6.95;;;1.33;;
19828;SDS011;10075;50.924;4.396;2022-10-16T10:32:13;7.03;;;1.55;;
19828;SDS011;10075;50.924;4.396;2022-10-16T10:34:55;5.97;;;1.10;;
19828;SDS011;10075;50.924;4.396;2022-10-16T10:37:33;7.32;;;0.85;;
19828;SDS011;10075;50.924;4.396;2022-10-16T10:40:15;3.33;;;1.23;;
19828;SDS011;10075;50.924;4.396;2022-10-16T10:42:51;5.00;;;1.15;;
19828;SDS011;10075;50.924;4.396;2022-10-16T10:45:26;7.78;;;1.27;;
19828;SDS011;10075;50.924;4.396;2022-10-16T10:48:06;4.13;;;0.70;;
19828;SDS011;10075;50.924;4.396;2022-10-16T10:50:45;7.47;;;1.17;;
19828;SDS011;10075;50.924;4.396;2022-10-16T10:53:21;4.32;;;1.02;;
19828;SDS011;10075;50.924;4.396;2022-10-16T10:55:59;4.65;;;1.00;;
19828;SDS011;10075;50.924;4.396;2022-10-16T10:58:43;3.70;;;1.08;;
19828;SDS011;10075;50.924;4.396;2022-10-16T11:01:30;8.18;;;1.27;;
19828;SDS011;10075;50.924;4.396;2022-10-16T11:04:19;5.80;;;1.20;;
19828;SDS011;10075;50.924;4.396;2022-10-16T11:07:02;4.78;;;1.20;;
19828;SDS011;10075;50.924;4.396;2022-10-16T11:09:32;3.08;;;0.90;;
19828;SDS011;10075;50.924;4.396;2022-10-16T11:12:05;4.25;;;1.10;;
19828;SDS011;10075;50.924;4.396;2022-10-16T11:14:40;5.20;;;1.13;;
19828;SDS011;10075;50.924;4.396;2022-10-16T11:17:13;3.67;;;1.27;;
19828;SDS011;10075;50.924;4.396;2022-10-16T11:19:45;6.82;;;1.38;;
19828;SDS011;10075;50.924;4.396;2022-10-16T11:22:16;5.97;;;1.45;;
19828;SDS011;10075;50.924;4.396;2022-10-16T11:24:48;6.10;;;1.20;;
19828;SDS011;10075;50.924;4.396;2022-10-16T11:27:19;4.72;;;1.30;;
19828;SDS011;10075;50.924;4.396;2022-10-16T11:29:53;4.32;;;0.88;;
19828;SDS011;10075;50.924;4.396;2022-10-16T11:32:33;3.55;;;1.00;;
19828;SDS011;10075;50.924;4.396;2022-10-16T11:35:08;5.88;;;1.23;;
19828;SDS011;10075;50.924;4.396;2022-10-16T11:37:46;5.13;;;1.35;;
19828;SDS011;10075;50.924;4.396;2022-10-16T11:40:18;6.72;;;1.27;;
19828;SDS011;10075;50.924;4.396;2022-10-16T11:42:50;3.65;;;1.20;;
19828;SDS011;10075;50.924;4.396;2022-10-16T11:45:25;6.25;;;1.30;;
19828;SDS011;10075;50.924;4.396;2022-10-16T11:48:00;2.90;;;0.95;;
19828;SDS011;10075;50.924;4.396;2022-10-16T11:50:31;4.10;;;0.80;;
19828;SDS011;10075;50.924;4.396;2022-10-16T11:53:04;5.20;;;1.23;;
19828;SDS011;10075;50.924;4.396;2022-10-16T11:55:40;3.30;;;1.00;;
19828;SDS011;10075;50.924;4.396;2022-10-16T11:58:09;5.50;;;0.95;;
19828;SDS011;10075;50.924;4.396;2022-10-16T12:00:46;1.98;;;0.88;;
19828;SDS011;10075;50.924;4.396;2022-10-16T12:03:24;3.10;;;1.00;;
19828;SDS011;10075;50.924;4.396;2022-10-16T12:05:58;4.13;;;1.10;;
19828;SDS011;10075;50.924;4.396;2022-10-16T12:08:38;3.47;;;0.90;;
19828;SDS011;10075;50.924;4.396;2022-10-16T12:11:06;3.35;;;0.98;;
19828;SDS011;10075;50.924;4.396;2022-10-16T12:13:35;4.05;;;0.82;;
19828;SDS011;10075;50.924;4.396;2022-10-16T12:16:04;5.78;;;1.00;;
19828;SDS011;10075;50.924;4.396;2022-10-16T12:18:46;3.67;;;1.00;;
19828;SDS011;10075;50.924;4.396;2022-10-16T12:21:14;3.42;;;0.73;;
19828;SDS011;10075;50.924;4.396;2022-10-16T12:23:48;2.67;;;1.00;;
19828;SDS011;10075;50.924;4.396;2022-10-16T12:26:23;3.53;;;0.88;;
19828;SDS011;10075;50.924;4.396;2022-10-16T12:28:51;4.78;;;1.45;;
19828;SDS011;10075;50.924;4.396;2022-10-16T12:31:19;4.00;;;1.30;;
19828;SDS011;10075;50.924;4.396;2022-10-16T12:33:55;3.97;;;1.02;;
19828;SDS011;10075;50.924;4.396;2022-10-16T12:36:28;7.90;;;0.93;;
19828;SDS011;10075;50.924;4.396;2022-10-16T12:38:58;6.00;;;1.10;;
19828;SDS011;10075;50.924;4.396;2022-10-16T12:41:28;6.75;;;1.42;;
19828;SDS011;10075;50.924;4.396;2022-10-16T12:43:56;2.70;;;1.10;;
19828;SDS011;10075;50.924;4.396;2022-10-16T12:46:37;3.55;;;1.20;;
19828;SDS011;10075;50.924;4.396;2022-10-16T12:49:07;6.63;;;1.15;;
19828;SDS011;10075;50.924;4.396;2022-10-16T12:51:57;2.22;;;0.90;;
19828;SDS011;10075;50.924;4.396;2022-10-16T12:54:27;5.78;;;0.77;;
19828;SDS011;10075;50.924;4.396;2022-10-16T12:57:02;2.15;;;0.70;;
19828;SDS011;10075;50.924;4.396;2022-10-16T12:59:45;3.67;;;0.80;;
19828;SDS011;10075;50.924;4.396;2022-10-16T13:02:39;1.90;;;0.80;;
19828;SDS011;10075;50.924;4.396;2022-10-16T13:05:27;4.38;;;0.90;;
19828;SDS011;10075;50.924;4.396;2022-10-16T13:08:03;5.32;;;0.85;;
19828;SDS011;10075;50.924;4.396;2022-10-16T13:10:46;6.32;;;0.93;;
19828;SDS011;10075;50.924;4.396;2022-10-16T13:13:31;2.78;;;0.80;;
19828;SDS011;10075;50.924;4.396;2022-10-16T13:16:17;3.58;;;1.10;;
19828;SDS011;10075;50.924;4.396;2022-10-16T13:18:54;3.92;;;0.65;;
19828;SDS011;10075;50.924;4.396;2022-10-16T13:21:31;1.75;;;0.70;;
19828;SDS011;10075;50.924;4.396;2022-10-16T13:24:08;2.33;;;0.60;;
19828;SDS011;10075;50.924;4.396;2022-10-16T13:26:46;2.80;;;0.82;;
19828;SDS011;10075;50.924;4.396;2022-10-16T13:29:20;5.50;;;0.80;;
19828;SDS011;10075;50.924;4.396;2022-10-16T13:31:48;1.08;;;0.40;;
19828;SDS011;10075;50.924;4.396;2022-10-16T13:34:17;2.05;;;0.82;;
19828;SDS011;10075;50.924;4.396;2022-10-16T13:36:48;2.47;;;0.63;;
19828;SDS011;10075;50.924;4.396;2022-10-16T13:39:20;2.50;;;1.00;;
19828;SDS011;10075;50.924;4.396;2022-10-16T13:42:00;2.60;;;0.70;;
19828;SDS011;10075;50.924;4.396;2022-10-16T13:44:30;3.10;;;0.75;;
19828;SDS011;10075;50.924;4.396;2022-10-16T13:47:02;4.03;;;1.10;;
19828;SDS011;10075;50.924;4.396;2022-10-16T13:49:29;6.32;;;1.23;;
19828;SDS011;10075;50.924;4.396;2022-10-16T13:51:56;2.08;;;0.68;;
19828;SDS011;10075;50.924;4.396;2022-10-16T13:54:25;4.45;;;1.65;;
19828;SDS011;10075;50.924;4.396;2022-10-16T13:56:53;5.07;;;0.95;;
19828;SDS011;10075;50.924;4.396;2022-10-16T13:59:26;3.63;;;1.10;;
19828;SDS011;10075;50.924;4.396;2022-10-16T14:01:58;3.83;;;0.98;;
19828;SDS011;10075;50.924;4.396;2022-10-16T14:04:27;5.03;;;1.17;;
19828;SDS011;10075;50.924;4.396;2022-10-16T14:06:58;2.50;;;0.70;;
19828;SDS011;10075;50.924;4.396;2022-10-16T14:09:25;4.32;;;1.10;;
19828;SDS011;10075;50.924;4.396;2022-10-16T14:11:54;3.35;;;0.77;;
19828;SDS011;10075;50.924;4.396;2022-10-16T14:14:25;2.85;;;0.90;;
19828;SDS011;10075;50.924;4.396;2022-10-16T14:16:58;5.28;;;1.00;;
19828;SDS011;10075;50.924;4.396;2022-10-16T14:19:25;4.35;;;0.85;;
19828;SDS011;10075;50.924;4.396;2022-10-16T14:21:54;3.83;;;0.80;;
19828;SDS011;10075;50.924;4.396;2022-10-16T14:24:24;4.53;;;0.93;;
19828;SDS011;10075;50.924;4.396;2022-10-16T14:26:53;2.17;;;0.77;;
19828;SDS011;10075;50.924;4.396;2022-10-16T14:29:21;1.45;;;0.63;;
19828;SDS011;10075;50.924;4.396;2022-10-16T14:31:58;2.83;;;0.85;;
19828;SDS011;10075;50.924;4.396;2022-10-16T14:34:27;4.63;;;1.00;;
19828;SDS011;10075;50.924;4.396;2022-10-16T14:36:58;2.72;;;0.93;;
19828;SDS011;10075;50.924;4.396;2022-10-16T14:39:29;3.35;;;0.70;;
19828;SDS011;10075;50.924;4.396;2022-10-16T14:41:57;5.72;;;1.65;;
19828;SDS011;10075;50.924;4.396;2022-10-16T14:44:27;5.35;;;2.75;;
19828;SDS011;10075;50.924;4.396;2022-10-16T14:46:58;5.28;;;2.50;;
19828;SDS011;10075;50.924;4.396;2022-10-16T14:49:34;4.95;;;1.42;;
19828;SDS011;10075;50.924;4.396;2022-10-16T14:52:01;5.97;;;1.20;;
19828;SDS011;10075;50.924;4.396;2022-10-16T14:54:31;5.38;;;1.00;;
19828;SDS011;10075;50.924;4.396;2022-10-16T14:56:58;3.65;;;1.20;;
19828;SDS011;10075;50.924;4.396;2022-10-16T14:59:27;4.18;;;1.33;;
19828;SDS011;10075;50.924;4.396;2022-10-16T15:01:59;3.88;;;1.20;;
19828;SDS011;10075;50.924;4.396;2022-10-16T15:04:26;3.80;;;1.27;;
19828;SDS011;10075;50.924;4.396;2022-10-16T15:06:53;7.18;;;1.80;;
19828;SDS011;10075;50.924;4.396;2022-10-16T15:09:20;4.47;;;1.35;;
19828;SDS011;10075;50.924;4.396;2022-10-16T15:11:47;4.20;;;1.38;;
19828;SDS011;10075;50.924;4.396;2022-10-16T15:14:14;3.80;;;1.70;;